sensor_id;sensor_type;location;lat;lon;timestamp;temperature;humidity
48007;DHT22;33771;48.180;11.400;2023-05-21T00:01:39;13.90;99.90
48007;DHT22;33771;48.180;11.400;2023-05-21T00:04:05;13.80;99.90
48007;DHT22;33771;48.180;11.400;2023-05-21T00:06:33;13.80;99.90
48007;DHT22;33771;48.180;11.400;2023-05-21T00:09:03;13.80;99.90
48007;DHT22;33771;48.180;11.400;2023-05-21T00:11:29;13.80;99.90
48007;DHT22;33771;48.180;11.400;2023-05-21T00:13:55;13.80;99.90
48007;DHT22;33771;48.180;11.400;2023-05-21T00:16:21;13.70;99.90
48007;DHT22;33771;48.180;11.400;2023-05-21T00:18:47;13.70;99.90
48007;DHT22;33771;48.180;11.400;2023-05-21T00:21:17;13.70;99.90
48007;DHT22;33771;48.180;11.400;2023-05-21T00:23:46;13.60;99.90
48007;DHT22;33771;48.180;11.400;2023-05-21T00:26:12;13.60;99.90
48007;DHT22;33771;48.180;11.400;2023-05-21T00:28:38;13.50;99.90
48007;DHT22;33771;48.180;11.400;2023-05-21T00:31:03;13.50;99.90
48007;DHT22;33771;48.180;11.400;2023-05-21T00:33:29;13.40;99.90
48007;DHT22;33771;48.180;11.400;2023-05-21T00:35:55;13.40;99.90
48007;DHT22;33771;48.180;11.400;2023-05-21T00:38:22;13.30;99.90
48007;DHT22;33771;48.180;11.400;2023-05-21T00:40:48;13.30;99.90
48007;DHT22;33771;48.180;11.400;2023-05-21T00:43:14;13.30;99.90
48007;DHT22;33771;48.180;11.400;2023-05-21T00:45:40;13.20;99.90
48007;DHT22;33771;48.180;11.400;2023-05-21T00:48:09;13.20;99.90
48007;DHT22;33771;48.180;11.400;2023-05-21T00:50:35;13.10;99.90
48007;DHT22;33771;48.180;11.400;2023-05-21T00:53:04;13.10;99.90
48007;DHT22;33771;48.180;11.400;2023-05-21T00:55:35;13.10;99.90
48007;DHT22;33771;48.180;11.400;2023-05-21T00:58:00;13.00;99.90
48007;DHT22;33771;48.180;11.400;2023-05-21T01:00:26;13.00;99.90
48007;DHT22;33771;48.180;11.400;2023-05-21T01:02:52;13.00;99.90
48007;DHT22;33771;48.180;11.400;2023-05-21T01:05:18;12.90;99.90
48007;DHT22;33771;48.180;11.400;2023-05-21T01:07:43;12.90;99.90
48007;DHT22;33771;48.180;11.400;2023-05-21T01:10:10;12.90;99.90
48007;DHT22;33771;48.180;11.400;2023-05-21T01:12:37;12.90;99.90
48007;DHT22;33771;48.180;11.400;2023-05-21T01:15:04;12.80;99.90
48007;DHT22;33771;48.180;11.400;2023-05-21T01:17:30;12.80;99.90
48007;DHT22;33771;48.180;11.400;2023-05-21T01:19:58;12.80;99.90
48007;DHT22;33771;48.180;11.400;2023-05-21T01:22:25;12.80;99.90
48007;DHT22;33771;48.180;11.400;2023-05-21T01:24:53;12.80;99.90
48007;DHT22;33771;48.180;11.400;2023-05-21T01:27:19;12.70;99.90
48007;DHT22;33771;48.180;11.400;2023-05-21T01:29:45;12.70;99.90
48007;DHT22;33771;48.180;11.400;2023-05-21T01:38:02;12.70;99.90
48007;DHT22;33771;48.180;11.400;2023-05-21T01:40:22;12.70;99.90
48007;DHT22;33771;48.180;11.400;2023-05-21T01:42:50;12.60;99.90
48007;DHT22;33771;48.180;11.400;2023-05-21T01:45:17;12.60;99.90
48007;DHT22;33771;48.180;11.400;2023-05-21T01:47:45;12.60;99.90
48007;DHT22;33771;48.180;11.400;2023-05-21T01:50:13;12.60;99.90
48007;DHT22;33771;48.180;11.400;2023-05-21T01:52:38;12.60;99.90
48007;DHT22;33771;48.180;11.400;2023-05-21T01:55:12;12.60;99.90
48007;DHT22;33771;48.180;11.400;2023-05-21T01:57:37;12.50;99.90
48007;DHT22;33771;48.180;11.400;2023-05-21T02:00:04;12.50;99.90
48007;DHT22;33771;48.180;11.400;2023-05-21T02:02:30;12.50;99.90
48007;DHT22;33771;48.180;11.400;2023-05-21T02:04:55;12.50;99.90
48007;DHT22;33771;48.180;11.400;2023-05-21T02:07:21;12.40;99.90
48007;DHT22;33771;48.180;11.400;2023-05-21T02:09:47;12.40;99.90
48007;DHT22;33771;48.180;11.400;2023-05-21T02:12:12;12.40;99.90
48007;DHT22;33771;48.180;11.400;2023-05-21T02:14:38;12.40;99.90
48007;DHT22;33771;48.180;11.400;2023-05-21T02:17:03;12.30;99.90
48007;DHT22;33771;48.180;11.400;2023-05-21T02:19:29;12.30;99.90
48007;DHT22;33771;48.180;11.400;2023-05-21T02:21:55;12.30;99.90
48007;DHT22;33771;48.180;11.400;2023-05-21T02:24:20;12.20;99.90
48007;DHT22;33771;48.180;11.400;2023-05-21T02:26:46;12.20;99.90
48007;DHT22;33771;48.180;11.400;2023-05-21T02:29:14;12.20;99.90
48007;DHT22;33771;48.180;11.400;2023-05-21T02:31:39;12.10;99.90
48007;DHT22;33771;48.180;11.400;2023-05-21T02:34:05;12.10;99.90
48007;DHT22;33771;48.180;11.400;2023-05-21T02:36:32;12.10;99.90
48007;DHT22;33771;48.180;11.400;2023-05-21T02:38:57;12.10;99.90
48007;DHT22;33771;48.180;11.400;2023-05-21T02:41:23;12.10;99.90
48007;DHT22;33771;48.180;11.400;2023-05-21T02:43:48;12.00;99.90
48007;DHT22;33771;48.180;11.400;2023-05-21T02:46:14;12.00;99.90
48007;DHT22;33771;48.180;11.400;2023-05-21T02:48:40;12.00;99.90
48007;DHT22;33771;48.180;11.400;2023-05-21T02:51:05;12.00;99.90
48007;DHT22;33771;48.180;11.400;2023-05-21T02:53:31;12.00;99.90
48007;DHT22;33771;48.180;11.400;2023-05-21T02:55:56;12.00;99.90
48007;DHT22;33771;48.180;11.400;2023-05-21T02:58:22;12.00;99.90
48007;DHT22;33771;48.180;11.400;2023-05-21T03:00:50;12.00;99.90
48007;DHT22;33771;48.180;11.400;2023-05-21T03:03:15;11.90;99.90
48007;DHT22;33771;48.180;11.400;2023-05-21T03:05:41;11.90;99.90
48007;DHT22;33771;48.180;11.400;2023-05-21T03:08:06;11.90;99.90
48007;DHT22;33771;48.180;11.400;2023-05-21T03:10:32;11.90;99.90
48007;DHT22;33771;48.180;11.400;2023-05-21T03:12:57;11.90;99.90
48007;DHT22;33771;48.180;11.400;2023-05-21T03:15:23;11.80;99.90
48007;DHT22;33771;48.180;11.400;2023-05-21T03:17:51;11.80;99.90
48007;DHT22;33771;48.180;11.400;2023-05-21T03:20:18;11.90;99.90
48007;DHT22;33771;48.180;11.400;2023-05-21T03:22:44;11.90;99.90
48007;DHT22;33771;48.180;11.400;2023-05-21T03:25:11;11.80;99.90
48007;DHT22;33771;48.180;11.400;2023-05-21T03:27:37;11.80;99.90
48007;DHT22;33771;48.180;11.400;2023-05-21T03:30:03;11.80;99.90
48007;DHT22;33771;48.180;11.400;2023-05-21T03:32:29;11.80;99.90
48007;DHT22;33771;48.180;11.400;2023-05-21T03:34:55;11.80;99.90
48007;DHT22;33771;48.180;11.400;2023-05-21T03:37:20;11.80;99.90
48007;DHT22;33771;48.180;11.400;2023-05-21T03:39:46;11.70;99.90
48007;DHT22;33771;48.180;11.400;2023-05-21T03:42:11;11.70;99.90
48007;DHT22;33771;48.180;11.400;2023-05-21T03:44:38;11.70;99.90
48007;DHT22;33771;48.180;11.400;2023-05-21T03:47:04;11.70;99.90
48007;DHT22;33771;48.180;11.400;2023-05-21T03:49:29;11.70;99.90
48007;DHT22;33771;48.180;11.400;2023-05-21T03:51:55;11.70;99.90
48007;DHT22;33771;48.180;11.400;2023-05-21T03:54:21;11.80;99.90
48007;DHT22;33771;48.180;11.400;2023-05-21T03:56:46;11.80;99.90
48007;DHT22;33771;48.180;11.400;2023-05-21T03:59:12;11.80;99.90
48007;DHT22;33771;48.180;11.400;2023-05-21T04:01:37;11.80;99.90
48007;DHT22;33771;48.180;11.400;2023-05-21T04:04:03;11.90;99.90
48007;DHT22;33771;48.180;11.400;2023-05-21T04:06:29;11.90;99.90
48007;DHT22;33771;48.180;11.400;2023-05-21T04:08:54;11.90;99.90
48007;DHT22;33771;48.180;11.400;2023-05-21T04:11:20;11.90;99.90
48007;DHT22;33771;48.180;11.400;2023-05-21T04:13:46;11.90;99.90
48007;DHT22;33771;48.180;11.400;2023-05-21T04:16:12;12.00;99.90
48007;DHT22;33771;48.180;11.400;2023-05-21T04:18:39;12.00;99.90
48007;DHT22;33771;48.180;11.400;2023-05-21T04:21:06;12.00;99.90
48007;DHT22;33771;48.180;11.400;2023-05-21T04:23:32;12.00;99.90
48007;DHT22;33771;48.180;11.400;2023-05-21T04:25:57;12.00;99.90
48007;DHT22;33771;48.180;11.400;2023-05-21T04:28:23;12.10;99.90
48007;DHT22;33771;48.180;11.400;2023-05-21T04:30:49;12.10;99.90
48007;DHT22;33771;48.180;11.400;2023-05-21T04:33:14;12.20;99.90
48007;DHT22;33771;48.180;11.400;2023-05-21T04:35:49;12.20;99.90
48007;DHT22;33771;48.180;11.400;2023-05-21T04:38:16;12.30;99.90
48007;DHT22;33771;48.180;11.400;2023-05-21T04:40:49;12.30;99.90
48007;DHT22;33771;48.180;11.400;2023-05-21T04:43:15;12.40;99.90
48007;DHT22;33771;48.180;11.400;2023-05-21T04:45:41;12.40;99.90
48007;DHT22;33771;48.180;11.400;2023-05-21T04:48:07;12.50;99.90
48007;DHT22;33771;48.180;11.400;2023-05-21T04:50:33;12.50;99.90
48007;DHT22;33771;48.180;11.400;2023-05-21T04:52:59;12.60;99.90
48007;DHT22;33771;48.180;11.400;2023-05-21T04:55:24;12.70;99.90
48007;DHT22;33771;48.180;11.400;2023-05-21T04:57:51;12.70;99.90
48007;DHT22;33771;48.180;11.400;2023-05-21T05:00:17;12.80;99.90
48007;DHT22;33771;48.180;11.400;2023-05-21T05:02:43;12.90;99.90
48007;DHT22;33771;48.180;11.400;2023-05-21T05:05:09;12.90;99.90
48007;DHT22;33771;48.180;11.400;2023-05-21T05:07:34;13.00;99.90
48007;DHT22;33771;48.180;11.400;2023-05-21T05:10:01;13.10;99.90
48007;DHT22;33771;48.180;11.400;2023-05-21T05:12:26;13.20;99.90
48007;DHT22;33771;48.180;11.400;2023-05-21T05:14:52;13.30;99.90
48007;DHT22;33771;48.180;11.400;2023-05-21T05:17:17;13.40;99.90
48007;DHT22;33771;48.180;11.400;2023-05-21T05:19:44;13.40;99.90
48007;DHT22;33771;48.180;11.400;2023-05-21T05:22:09;13.50;99.90
48007;DHT22;33771;48.180;11.400;2023-05-21T05:24:35;13.60;99.90
48007;DHT22;33771;48.180;11.400;2023-05-21T05:27:01;13.70;99.90
48007;DHT22;33771;48.180;11.400;2023-05-21T05:29:26;13.80;99.90
48007;DHT22;33771;48.180;11.400;2023-05-21T05:31:52;13.90;99.90
48007;DHT22;33771;48.180;11.400;2023-05-21T05:34:17;14.00;99.90
48007;DHT22;33771;48.180;11.400;2023-05-21T05:36:44;14.10;99.90
48007;DHT22;33771;48.180;11.400;2023-05-21T05:39:10;14.20;99.90
48007;DHT22;33771;48.180;11.400;2023-05-21T05:41:36;14.30;99.90
48007;DHT22;33771;48.180;11.400;2023-05-21T05:44:01;14.40;99.90
48007;DHT22;33771;48.180;11.400;2023-05-21T05:46:27;14.50;99.90
48007;DHT22;33771;48.180;11.400;2023-05-21T05:48:53;14.60;99.90
48007;DHT22;33771;48.180;11.400;2023-05-21T05:51:18;14.70;99.90
48007;DHT22;33771;48.180;11.400;2023-05-21T05:53:44;14.80;99.90
48007;DHT22;33771;48.180;11.400;2023-05-21T05:56:10;14.80;99.90
48007;DHT22;33771;48.180;11.400;2023-05-21T05:58:35;14.90;99.90
48007;DHT22;33771;48.180;11.400;2023-05-21T06:01:01;15.00;99.90
48007;DHT22;33771;48.180;11.400;2023-05-21T06:03:26;15.10;99.90
48007;DHT22;33771;48.180;11.400;2023-05-21T06:05:52;15.20;99.90
48007;DHT22;33771;48.180;11.400;2023-05-21T06:08:18;15.20;99.90
48007;DHT22;33771;48.180;11.400;2023-05-21T06:10:44;15.30;99.90
48007;DHT22;33771;48.180;11.400;2023-05-21T06:13:09;15.30;99.90
48007;DHT22;33771;48.180;11.400;2023-05-21T06:15:35;15.40;99.90
48007;DHT22;33771;48.180;11.400;2023-05-21T06:18:01;15.40;99.90
48007;DHT22;33771;48.180;11.400;2023-05-21T06:20:26;15.50;99.90
48007;DHT22;33771;48.180;11.400;2023-05-21T06:22:52;15.50;99.90
48007;DHT22;33771;48.180;11.400;2023-05-21T06:25:17;15.60;99.90
48007;DHT22;33771;48.180;11.400;2023-05-21T06:27:43;15.70;99.90
48007;DHT22;33771;48.180;11.400;2023-05-21T06:30:08;15.80;99.90
48007;DHT22;33771;48.180;11.400;2023-05-21T06:32:34;15.90;99.90
48007;DHT22;33771;48.180;11.400;2023-05-21T06:35:00;16.00;99.90
48007;DHT22;33771;48.180;11.400;2023-05-21T06:37:25;16.10;99.90
48007;DHT22;33771;48.180;11.400;2023-05-21T06:39:51;16.10;99.90
48007;DHT22;33771;48.180;11.400;2023-05-21T06:42:16;16.20;99.90
48007;DHT22;33771;48.180;11.400;2023-05-21T06:44:43;16.20;99.90
48007;DHT22;33771;48.180;11.400;2023-05-21T06:47:08;16.40;99.90
48007;DHT22;33771;48.180;11.400;2023-05-21T06:49:34;16.40;99.90
48007;DHT22;33771;48.180;11.400;2023-05-21T06:52:00;16.50;99.90
48007;DHT22;33771;48.180;11.400;2023-05-21T06:54:25;16.50;99.90
48007;DHT22;33771;48.180;11.400;2023-05-21T06:56:51;16.70;99.90
48007;DHT22;33771;48.180;11.400;2023-05-21T06:59:16;16.80;99.90
48007;DHT22;33771;48.180;11.400;2023-05-21T07:01:42;16.90;99.90
48007;DHT22;33771;48.180;11.400;2023-05-21T07:04:08;17.00;99.90
48007;DHT22;33771;48.180;11.400;2023-05-21T07:06:34;17.10;99.90
48007;DHT22;33771;48.180;11.400;2023-05-21T07:09:00;17.20;99.90
48007;DHT22;33771;48.180;11.400;2023-05-21T07:11:26;17.40;99.90
48007;DHT22;33771;48.180;11.400;2023-05-21T07:13:53;17.50;99.90
48007;DHT22;33771;48.180;11.400;2023-05-21T07:16:19;17.60;99.90
48007;DHT22;33771;48.180;11.400;2023-05-21T07:18:45;17.80;99.90
48007;DHT22;33771;48.180;11.400;2023-05-21T07:21:11;17.90;99.90
48007;DHT22;33771;48.180;11.400;2023-05-21T07:23:36;18.10;99.90
48007;DHT22;33771;48.180;11.400;2023-05-21T07:26:02;18.40;99.90
48007;DHT22;33771;48.180;11.400;2023-05-21T07:28:28;18.50;99.90
48007;DHT22;33771;48.180;11.400;2023-05-21T07:30:53;18.60;99.90
48007;DHT22;33771;48.180;11.400;2023-05-21T07:33:19;18.70;99.90
48007;DHT22;33771;48.180;11.400;2023-05-21T07:35:46;18.80;99.90
48007;DHT22;33771;48.180;11.400;2023-05-21T07:38:11;19.10;99.90
48007;DHT22;33771;48.180;11.400;2023-05-21T07:40:37;19.20;99.90
48007;DHT22;33771;48.180;11.400;2023-05-21T07:43:02;19.30;99.90
48007;DHT22;33771;48.180;11.400;2023-05-21T07:45:28;19.30;99.90
48007;DHT22;33771;48.180;11.400;2023-05-21T07:47:53;19.40;99.90
48007;DHT22;33771;48.180;11.400;2023-05-21T07:50:19;19.40;99.90
48007;DHT22;33771;48.180;11.400;2023-05-21T07:52:44;19.60;99.90
48007;DHT22;33771;48.180;11.400;2023-05-21T07:55:10;19.70;99.90
48007;DHT22;33771;48.180;11.400;2023-05-21T07:57:36;19.80;99.90
48007;DHT22;33771;48.180;11.400;2023-05-21T08:00:02;20.00;99.90
48007;DHT22;33771;48.180;11.400;2023-05-21T08:02:30;20.10;99.90
48007;DHT22;33771;48.180;11.400;2023-05-21T08:04:56;20.30;99.90
48007;DHT22;33771;48.180;11.400;2023-05-21T08:07:22;20.40;99.90
48007;DHT22;33771;48.180;11.400;2023-05-21T08:09:47;20.60;99.90
48007;DHT22;33771;48.180;11.400;2023-05-21T08:12:13;20.80;99.90
48007;DHT22;33771;48.180;11.400;2023-05-21T08:14:40;20.90;99.90
48007;DHT22;33771;48.180;11.400;2023-05-21T08:17:08;21.00;99.90
48007;DHT22;33771;48.180;11.400;2023-05-21T08:19:34;21.00;99.90
48007;DHT22;33771;48.180;11.400;2023-05-21T08:21:59;21.00;99.90
48007;DHT22;33771;48.180;11.400;2023-05-21T08:24:25;21.00;99.90
48007;DHT22;33771;48.180;11.400;2023-05-21T08:26:50;21.10;99.90
48007;DHT22;33771;48.180;11.400;2023-05-21T08:29:16;21.10;99.90
48007;DHT22;33771;48.180;11.400;2023-05-21T08:31:42;21.20;99.90
48007;DHT22;33771;48.180;11.400;2023-05-21T08:34:07;21.10;99.90
48007;DHT22;33771;48.180;11.400;2023-05-21T08:36:33;21.00;99.90
48007;DHT22;33771;48.180;11.400;2023-05-21T08:38:58;21.00;99.90
48007;DHT22;33771;48.180;11.400;2023-05-21T08:41:24;21.00;99.90
48007;DHT22;33771;48.180;11.400;2023-05-21T08:43:54;20.90;99.90
48007;DHT22;33771;48.180;11.400;2023-05-21T08:46:23;20.80;99.90
48007;DHT22;33771;48.180;11.400;2023-05-21T08:48:50;20.80;99.90
48007;DHT22;33771;48.180;11.400;2023-05-21T08:51:21;20.70;99.90
48007;DHT22;33771;48.180;11.400;2023-05-21T08:53:47;20.60;99.90
48007;DHT22;33771;48.180;11.400;2023-05-21T08:56:18;20.60;99.90
48007;DHT22;33771;48.180;11.400;2023-05-21T08:58:45;20.60;99.90
48007;DHT22;33771;48.180;11.400;2023-05-21T09:01:11;20.50;99.90
48007;DHT22;33771;48.180;11.400;2023-05-21T09:03:39;20.50;99.90
48007;DHT22;33771;48.180;11.400;2023-05-21T09:06:06;20.70;99.90
48007;DHT22;33771;48.180;11.400;2023-05-21T09:08:35;20.70;99.90
48007;DHT22;33771;48.180;11.400;2023-05-21T09:11:03;20.80;99.90
48007;DHT22;33771;48.180;11.400;2023-05-21T09:13:30;20.80;99.90
48007;DHT22;33771;48.180;11.400;2023-05-21T09:15:57;21.00;99.90
48007;DHT22;33771;48.180;11.400;2023-05-21T09:18:26;21.00;99.90
48007;DHT22;33771;48.180;11.400;2023-05-21T09:20:54;21.10;99.90
48007;DHT22;33771;48.180;11.400;2023-05-21T09:23:21;21.20;99.90
48007;DHT22;33771;48.180;11.400;2023-05-21T09:25:47;21.30;99.90
48007;DHT22;33771;48.180;11.400;2023-05-21T09:28:15;21.50;99.90
48007;DHT22;33771;48.180;11.400;2023-05-21T09:33:10;21.70;99.90
48007;DHT22;33771;48.180;11.400;2023-05-21T09:42:28;22.10;99.90
48007;DHT22;33771;48.180;11.400;2023-05-21T09:44:54;22.20;99.90
48007;DHT22;33771;48.180;11.400;2023-05-21T09:47:19;22.30;99.90
48007;DHT22;33771;48.180;11.400;2023-05-21T09:49:45;22.40;99.90
48007;DHT22;33771;48.180;11.400;2023-05-21T09:52:11;22.60;99.90
48007;DHT22;33771;48.180;11.400;2023-05-21T09:54:36;22.80;99.90
48007;DHT22;33771;48.180;11.400;2023-05-21T09:57:02;23.10;99.90
48007;DHT22;33771;48.180;11.400;2023-05-21T09:59:40;23.40;99.90
48007;DHT22;33771;48.180;11.400;2023-05-21T10:02:36;23.60;99.90
48007;DHT22;33771;48.180;11.400;2023-05-21T10:05:04;23.90;99.90
48007;DHT22;33771;48.180;11.400;2023-05-21T10:07:31;24.00;99.90
48007;DHT22;33771;48.180;11.400;2023-05-21T10:09:58;24.20;99.90
48007;DHT22;33771;48.180;11.400;2023-05-21T10:12:25;24.50;99.90
48007;DHT22;33771;48.180;11.400;2023-05-21T10:15:14;24.80;99.90
48007;DHT22;33771;48.180;11.400;2023-05-21T10:17:41;25.20;99.90
48007;DHT22;33771;48.180;11.400;2023-05-21T10:20:09;25.30;99.90
48007;DHT22;33771;48.180;11.400;2023-05-21T10:22:36;25.40;99.90
48007;DHT22;33771;48.180;11.400;2023-05-21T10:25:02;25.80;99.90
48007;DHT22;33771;48.180;11.400;2023-05-21T10:27:30;26.00;99.90
48007;DHT22;33771;48.180;11.400;2023-05-21T10:29:58;26.20;99.90
48007;DHT22;33771;48.180;11.400;2023-05-21T10:32:25;26.10;99.90
48007;DHT22;33771;48.180;11.400;2023-05-21T10:34:52;26.00;99.90
48007;DHT22;33771;48.180;11.400;2023-05-21T10:37:21;25.90;99.90
48007;DHT22;33771;48.180;11.400;2023-05-21T10:39:47;25.90;99.90
48007;DHT22;33771;48.180;11.400;2023-05-21T10:42:23;25.80;99.90
48007;DHT22;33771;48.180;11.400;2023-05-21T11:01:27;25.70;99.90
48007;DHT22;33771;48.180;11.400;2023-05-21T11:03:54;26.00;99.90
48007;DHT22;33771;48.180;11.400;2023-05-21T11:06:25;26.20;99.90
48007;DHT22;33771;48.180;11.400;2023-05-21T11:08:51;26.50;99.90
48007;DHT22;33771;48.180;11.400;2023-05-21T11:11:40;26.60;99.90
48007;DHT22;33771;48.180;11.400;2023-05-21T11:16:57;26.80;99.90
48007;DHT22;33771;48.180;11.400;2023-05-21T11:19:34;26.70;99.90
48007;DHT22;33771;48.180;11.400;2023-05-21T11:22:04;26.90;96.00
48007;DHT22;33771;48.180;11.400;2023-05-21T11:24:31;27.00;99.00
48007;DHT22;33771;48.180;11.400;2023-05-21T11:26:58;27.10;94.20
48007;DHT22;33771;48.180;11.400;2023-05-21T11:29:37;27.40;92.70
48007;DHT22;33771;48.180;11.400;2023-05-21T11:32:06;27.40;92.80
48007;DHT22;33771;48.180;11.400;2023-05-21T11:34:37;27.30;90.90
48007;DHT22;33771;48.180;11.400;2023-05-21T11:39:43;27.00;91.60
48007;DHT22;33771;48.180;11.400;2023-05-21T11:42:09;26.80;91.50
48007;DHT22;33771;48.180;11.400;2023-05-21T11:44:44;26.70;89.90
48007;DHT22;33771;48.180;11.400;2023-05-21T11:47:12;26.70;90.80
48007;DHT22;33771;48.180;11.400;2023-05-21T11:49:39;26.70;91.60
48007;DHT22;33771;48.180;11.400;2023-05-21T11:52:06;26.60;91.80
48007;DHT22;33771;48.180;11.400;2023-05-21T11:54:33;26.50;90.50
48007;DHT22;33771;48.180;11.400;2023-05-21T11:57:06;26.40;90.80
48007;DHT22;33771;48.180;11.400;2023-05-21T11:59:32;26.40;91.00
48007;DHT22;33771;48.180;11.400;2023-05-21T12:01:59;26.30;91.60
48007;DHT22;33771;48.180;11.400;2023-05-21T12:04:35;26.40;90.70
48007;DHT22;33771;48.180;11.400;2023-05-21T12:07:09;26.50;91.90
48007;DHT22;33771;48.180;11.400;2023-05-21T12:09:41;26.60;90.20
48007;DHT22;33771;48.180;11.400;2023-05-21T12:12:08;26.60;90.40
48007;DHT22;33771;48.180;11.400;2023-05-21T12:14:35;26.70;91.00
48007;DHT22;33771;48.180;11.400;2023-05-21T12:17:05;26.70;85.90
48007;DHT22;33771;48.180;11.400;2023-05-21T12:19:35;26.80;88.00
48007;DHT22;33771;48.180;11.400;2023-05-21T12:22:02;27.00;84.50
48007;DHT22;33771;48.180;11.400;2023-05-21T12:24:28;27.10;86.00
48007;DHT22;33771;48.180;11.400;2023-05-21T12:26:55;27.20;86.50
48007;DHT22;33771;48.180;11.400;2023-05-21T12:29:30;27.30;83.90
48007;DHT22;33771;48.180;11.400;2023-05-21T12:32:00;27.30;83.20
48007;DHT22;33771;48.180;11.400;2023-05-21T12:34:45;27.40;81.90
48007;DHT22;33771;48.180;11.400;2023-05-21T12:37:21;27.30;84.00
48007;DHT22;33771;48.180;11.400;2023-05-21T12:39:51;27.30;86.70
48007;DHT22;33771;48.180;11.400;2023-05-21T12:44:51;27.50;85.50
48007;DHT22;33771;48.180;11.400;2023-05-21T12:47:17;27.50;87.10
48007;DHT22;33771;48.180;11.400;2023-05-21T12:49:45;27.70;86.90
48007;DHT22;33771;48.180;11.400;2023-05-21T12:52:13;27.70;89.20
48007;DHT22;33771;48.180;11.400;2023-05-21T12:54:41;27.80;90.20
48007;DHT22;33771;48.180;11.400;2023-05-21T12:57:09;28.00;88.90
48007;DHT22;33771;48.180;11.400;2023-05-21T13:00:04;28.20;86.80
48007;DHT22;33771;48.180;11.400;2023-05-21T13:02:34;28.20;85.80
48007;DHT22;33771;48.180;11.400;2023-05-21T13:05:08;28.40;88.40
48007;DHT22;33771;48.180;11.400;2023-05-21T13:07:35;28.50;88.90
48007;DHT22;33771;48.180;11.400;2023-05-21T13:10:02;28.40;88.00
48007;DHT22;33771;48.180;11.400;2023-05-21T13:12:29;28.40;90.20
48007;DHT22;33771;48.180;11.400;2023-05-21T13:14:56;28.60;89.60
48007;DHT22;33771;48.180;11.400;2023-05-21T13:17:23;28.90;83.80
48007;DHT22;33771;48.180;11.400;2023-05-21T13:20:08;29.10;83.60
48007;DHT22;33771;48.180;11.400;2023-05-21T13:22:35;29.10;82.70
48007;DHT22;33771;48.180;11.400;2023-05-21T13:25:01;29.20;81.20
48007;DHT22;33771;48.180;11.400;2023-05-21T13:27:27;29.30;79.10
48007;DHT22;33771;48.180;11.400;2023-05-21T13:29:53;29.30;83.50
48007;DHT22;33771;48.180;11.400;2023-05-21T13:32:18;29.50;76.50
48007;DHT22;33771;48.180;11.400;2023-05-21T13:34:44;29.70;75.60
48007;DHT22;33771;48.180;11.400;2023-05-21T13:37:10;29.80;73.40
48007;DHT22;33771;48.180;11.400;2023-05-21T13:39:36;29.70;76.50
48007;DHT22;33771;48.180;11.400;2023-05-21T13:42:02;29.60;76.80
48007;DHT22;33771;48.180;11.400;2023-05-21T13:44:30;29.50;79.30
48007;DHT22;33771;48.180;11.400;2023-05-21T13:46:57;29.50;78.20
48007;DHT22;33771;48.180;11.400;2023-05-21T13:49:23;29.20;76.40
48007;DHT22;33771;48.180;11.400;2023-05-21T13:51:49;29.10;75.30
48007;DHT22;33771;48.180;11.400;2023-05-21T13:54:14;29.00;74.60
48007;DHT22;33771;48.180;11.400;2023-05-21T13:56:40;28.80;75.70
48007;DHT22;33771;48.180;11.400;2023-05-21T13:59:05;28.80;79.30
48007;DHT22;33771;48.180;11.400;2023-05-21T14:01:31;28.90;79.20
48007;DHT22;33771;48.180;11.400;2023-05-21T14:03:56;29.00;75.00
48007;DHT22;33771;48.180;11.400;2023-05-21T14:06:22;28.90;76.20
48007;DHT22;33771;48.180;11.400;2023-05-21T14:08:48;28.80;78.10
48007;DHT22;33771;48.180;11.400;2023-05-21T14:11:13;28.80;77.10
48007;DHT22;33771;48.180;11.400;2023-05-21T14:13:39;28.80;75.90
48007;DHT22;33771;48.180;11.400;2023-05-21T14:16:06;28.60;78.10
48007;DHT22;33771;48.180;11.400;2023-05-21T14:18:31;28.50;75.10
48007;DHT22;33771;48.180;11.400;2023-05-21T14:20:57;28.40;74.00
48007;DHT22;33771;48.180;11.400;2023-05-21T14:23:22;28.20;76.00
48007;DHT22;33771;48.180;11.400;2023-05-21T14:25:48;28.10;74.50
48007;DHT22;33771;48.180;11.400;2023-05-21T14:28:13;28.00;76.60
48007;DHT22;33771;48.180;11.400;2023-05-21T14:30:39;27.70;76.20
48007;DHT22;33771;48.180;11.400;2023-05-21T14:33:05;27.50;77.00
48007;DHT22;33771;48.180;11.400;2023-05-21T14:35:30;27.40;77.40
48007;DHT22;33771;48.180;11.400;2023-05-21T14:37:56;27.30;80.10
48007;DHT22;33771;48.180;11.400;2023-05-21T14:40:21;27.20;80.60
48007;DHT22;33771;48.180;11.400;2023-05-21T14:42:47;27.10;80.60
48007;DHT22;33771;48.180;11.400;2023-05-21T14:45:12;27.20;83.30
48007;DHT22;33771;48.180;11.400;2023-05-21T14:47:38;27.30;77.30
48007;DHT22;33771;48.180;11.400;2023-05-21T14:50:04;27.30;79.20
48007;DHT22;33771;48.180;11.400;2023-05-21T14:52:30;27.30;81.20
48007;DHT22;33771;48.180;11.400;2023-05-21T14:54:56;27.50;81.70
48007;DHT22;33771;48.180;11.400;2023-05-21T14:57:21;27.50;80.10
48007;DHT22;33771;48.180;11.400;2023-05-21T14:59:47;27.50;81.90
48007;DHT22;33771;48.180;11.400;2023-05-21T15:02:13;27.50;83.40
48007;DHT22;33771;48.180;11.400;2023-05-21T15:04:38;27.40;81.30
48007;DHT22;33771;48.180;11.400;2023-05-21T15:07:04;27.30;81.30
48007;DHT22;33771;48.180;11.400;2023-05-21T15:09:29;27.20;81.30
48007;DHT22;33771;48.180;11.400;2023-05-21T15:11:55;27.20;82.70
48007;DHT22;33771;48.180;11.400;2023-05-21T15:14:20;27.20;82.30
48007;DHT22;33771;48.180;11.400;2023-05-21T15:16:46;27.20;84.70
48007;DHT22;33771;48.180;11.400;2023-05-21T15:19:12;27.30;81.20
48007;DHT22;33771;48.180;11.400;2023-05-21T15:21:37;27.30;83.10
48007;DHT22;33771;48.180;11.400;2023-05-21T15:24:03;27.30;81.40
48007;DHT22;33771;48.180;11.400;2023-05-21T15:26:28;27.10;82.70
48007;DHT22;33771;48.180;11.400;2023-05-21T15:28:54;27.20;83.90
48007;DHT22;33771;48.180;11.400;2023-05-21T15:31:20;27.20;82.70
48007;DHT22;33771;48.180;11.400;2023-05-21T15:33:45;27.00;84.30
48007;DHT22;33771;48.180;11.400;2023-05-21T15:36:11;26.80;85.90
48007;DHT22;33771;48.180;11.400;2023-05-21T15:38:36;26.60;88.30
48007;DHT22;33771;48.180;11.400;2023-05-21T15:41:02;26.50;87.10
48007;DHT22;33771;48.180;11.400;2023-05-21T15:43:29;26.40;87.40
48007;DHT22;33771;48.180;11.400;2023-05-21T15:45:54;26.20;87.60
48007;DHT22;33771;48.180;11.400;2023-05-21T15:48:20;25.90;86.90
48007;DHT22;33771;48.180;11.400;2023-05-21T15:50:47;25.80;87.10
48007;DHT22;33771;48.180;11.400;2023-05-21T15:53:14;25.70;88.10